createdAt,value
2022-11-08T00:02:23.704Z,10.35
2022-11-08T00:04:50.643Z,10.38
2022-11-08T00:07:36.238Z,10.40
2022-11-08T00:10:21.978Z,11.05
2022-11-08T00:13:07.367Z,12.45
2022-11-08T00:15:38.713Z,10.10
2022-11-08T00:18:07.000Z,11.23
2022-11-08T00:20:34.034Z,11.38
2022-11-08T00:23:00.903Z,11.48
2022-11-08T00:25:27.773Z,9.63
2022-11-08T00:27:54.663Z,8.23
2022-11-08T00:30:21.504Z,9.35
2022-11-08T00:32:48.379Z,10.55
2022-11-08T00:35:15.354Z,9.65
2022-11-08T00:37:42.195Z,10.05
2022-11-08T00:40:09.992Z,8.75
2022-11-08T00:42:36.871Z,9.23
2022-11-08T00:45:04.127Z,9.60
2022-11-08T00:47:31.004Z,7.95
2022-11-08T00:49:57.822Z,9.23
2022-11-08T00:52:24.654Z,8.75
2022-11-08T00:54:51.516Z,9.13
2022-11-08T00:57:18.379Z,9.55
2022-11-08T00:59:45.179Z,8.60
2022-11-08T01:02:12.071Z,9.35
2022-11-08T01:04:38.928Z,8.02
2022-11-08T01:07:05.761Z,7.65
2022-11-08T01:09:32.653Z,8.85
2022-11-08T01:11:59.475Z,7.60
2022-11-08T01:14:26.290Z,9.25
2022-11-08T01:16:53.098Z,8.00
2022-11-08T01:19:19.925Z,8.52
2022-11-08T01:21:47.223Z,8.02
2022-11-08T01:24:14.048Z,8.73
2022-11-08T01:26:40.891Z,8.13
2022-11-08T01:29:07.743Z,8.52
2022-11-08T01:31:34.616Z,10.20
2022-11-08T01:34:01.558Z,6.00
2022-11-08T01:36:29.084Z,6.20
2022-11-08T01:38:57.798Z,6.90
2022-11-08T01:41:26.464Z,7.53
2022-11-08T01:43:55.960Z,6.22
2022-11-08T01:46:32.818Z,6.47
2022-11-08T01:49:05.530Z,7.72
2022-11-08T01:51:39.332Z,6.57
2022-11-08T01:54:08.952Z,7.03
2022-11-08T01:56:36.502Z,7.60
2022-11-08T02:01:34.679Z,5.75
2022-11-08T02:04:02.721Z,7.13
2022-11-08T02:06:30.281Z,6.28
2022-11-08T02:09:01.110Z,5.57
2022-11-08T02:11:28.777Z,6.13
2022-11-08T02:13:56.038Z,7.07
2022-11-08T02:16:22.876Z,4.88
2022-11-08T02:18:49.856Z,5.95
2022-11-08T02:21:21.548Z,5.72
2022-11-08T02:23:56.554Z,6.47
2022-11-08T02:26:26.250Z,4.90
2022-11-08T02:31:20.371Z,6.15
2022-11-08T02:33:48.295Z,5.80
2022-11-08T02:36:19.792Z,5.20
2022-11-08T02:38:50.994Z,5.43
2022-11-08T02:41:17.865Z,4.88
2022-11-08T02:43:44.689Z,5.32
2022-11-08T02:46:11.566Z,5.38
2022-11-08T02:48:38.387Z,4.88
2022-11-08T02:51:05.373Z,5.97
2022-11-08T02:53:32.325Z,4.88
2022-11-08T02:55:59.413Z,4.85
2022-11-08T02:58:27.974Z,4.60
2022-11-08T03:00:54.920Z,5.18
2022-11-08T03:03:21.814Z,4.93
2022-11-08T03:05:48.952Z,4.78
2022-11-08T03:08:16.272Z,5.13
2022-11-08T03:10:43.492Z,4.43
2022-11-08T03:13:10.815Z,5.13
2022-11-08T03:15:37.686Z,4.63
2022-11-08T03:18:04.664Z,5.72
2022-11-08T03:20:33.347Z,3.92
2022-11-08T03:23:05.581Z,4.18
2022-11-08T03:25:32.576Z,3.63
2022-11-08T03:28:06.981Z,3.50
2022-11-08T03:30:34.894Z,4.13
2022-11-08T03:33:01.956Z,5.28
2022-11-08T03:35:28.863Z,4.00
2022-11-08T03:37:56.967Z,4.03
2022-11-08T03:40:24.846Z,3.90
2022-11-08T03:42:51.835Z,3.38
2022-11-08T03:45:18.683Z,3.22
2022-11-08T03:47:47.023Z,3.67
2022-11-08T03:50:15.252Z,4.25
2022-11-08T03:52:52.820Z,3.40
2022-11-08T03:55:22.346Z,3.08
2022-11-08T03:57:50.205Z,3.15
2022-11-08T04:00:21.070Z,2.97
2022-11-08T04:02:48.204Z,3.10
2022-11-08T04:05:15.961Z,3.85
2022-11-08T04:07:43.336Z,4.05
2022-11-08T04:10:11.305Z,3.20
2022-11-08T04:13:00.669Z,3.90
2022-11-08T04:15:28.740Z,3.75
2022-11-08T04:18:14.272Z,3.30
2022-11-08T04:21:05.210Z,3.38
2022-11-08T04:23:33.707Z,2.53
2022-11-08T04:26:02.515Z,2.70
2022-11-08T04:28:31.329Z,2.77
2022-11-08T04:31:00.108Z,2.53
2022-11-08T04:33:27.227Z,2.30
2022-11-08T04:35:54.614Z,2.60
2022-11-08T04:38:21.981Z,3.42
2022-11-08T04:40:48.927Z,2.50
2022-11-08T04:43:15.814Z,2.90
2022-11-08T04:45:42.753Z,3.63
2022-11-08T04:48:09.871Z,2.88
2022-11-08T04:50:36.958Z,2.88
2022-11-08T04:53:04.221Z,3.20
2022-11-08T04:55:31.135Z,3.00
2022-11-08T04:57:59.064Z,3.05
2022-11-08T05:00:26.384Z,2.25
2022-11-08T05:02:53.303Z,2.50
2022-11-08T05:05:20.669Z,2.72
2022-11-08T05:07:47.545Z,2.05
2022-11-08T05:10:14.773Z,1.85
2022-11-08T05:12:41.631Z,2.72
2022-11-08T05:15:09.146Z,2.30
2022-11-08T05:17:36.111Z,1.80
2022-11-08T05:20:22.414Z,1.65
2022-11-08T05:23:08.791Z,2.35
2022-11-08T05:25:40.167Z,2.33
2022-11-08T05:28:07.042Z,2.10
2022-11-08T05:30:33.899Z,2.55
2022-11-08T05:33:00.774Z,2.00
2022-11-08T05:35:27.628Z,3.58
2022-11-08T05:37:54.440Z,2.10
2022-11-08T05:40:21.327Z,2.05
2022-11-08T05:42:48.298Z,2.13
2022-11-08T05:47:46.012Z,1.52
2022-11-08T05:50:19.139Z,1.83
2022-11-08T05:52:46.504Z,2.50
2022-11-08T05:55:13.354Z,2.25
2022-11-08T05:57:43.826Z,2.75
2022-11-08T06:00:12.534Z,1.95
2022-11-08T06:02:40.195Z,1.60
2022-11-08T06:05:08.222Z,1.70
2022-11-08T06:07:35.316Z,2.38
2022-11-08T06:10:02.742Z,1.65
2022-11-08T06:12:29.848Z,1.58
2022-11-08T06:14:56.717Z,1.83
2022-11-08T06:17:26.209Z,1.80
2022-11-08T06:19:55.990Z,1.77
2022-11-08T06:22:22.826Z,1.83
2022-11-08T06:24:49.662Z,1.73
2022-11-08T06:27:16.527Z,1.42
2022-11-08T06:29:43.521Z,1.55
2022-11-08T06:32:10.924Z,1.77
2022-11-08T06:34:38.054Z,1.10
2022-11-08T06:37:05.478Z,1.40
2022-11-08T06:39:32.611Z,1.45
2022-11-08T06:42:00.478Z,1.25
2022-11-08T06:44:27.348Z,1.30
2022-11-08T06:46:55.889Z,1.77
2022-11-08T06:49:25.952Z,1.60
2022-11-08T06:51:52.915Z,1.88
2022-11-08T06:54:23.212Z,1.30
2022-11-08T06:56:55.747Z,1.25
2022-11-08T06:59:23.331Z,1.30
2022-11-08T07:01:50.310Z,2.20
2022-11-08T07:04:17.284Z,1.42
2022-11-08T07:06:44.174Z,1.30
2022-11-08T07:09:11.284Z,2.88
2022-11-08T07:11:38.171Z,2.78
2022-11-08T07:14:04.994Z,19.98
2022-11-08T07:16:32.372Z,20.23
2022-11-08T07:18:59.265Z,18.38
2022-11-08T07:21:26.462Z,17.23
2022-11-08T07:23:53.344Z,14.43
2022-11-08T07:26:20.326Z,12.25
2022-11-08T07:28:47.163Z,10.55
2022-11-08T07:31:14.034Z,9.98
2022-11-08T07:33:41.147Z,9.23
2022-11-08T07:36:08.188Z,8.40
2022-11-08T07:41:02.722Z,6.70
2022-11-08T07:43:30.224Z,6.57
2022-11-08T07:45:59.307Z,5.93
2022-11-08T07:48:27.143Z,5.47
2022-11-08T07:50:54.369Z,4.72
2022-11-08T07:53:21.818Z,5.05
2022-11-08T07:55:48.760Z,4.90
2022-11-08T07:58:16.162Z,4.50
2022-11-08T08:00:44.716Z,5.00
2022-11-08T08:03:13.637Z,3.70
2022-11-08T08:05:42.919Z,4.20
2022-11-08T08:08:10.729Z,5.03
2022-11-08T08:10:37.958Z,3.70
2022-11-08T08:13:05.123Z,4.13
2022-11-08T08:15:32.070Z,4.60
2022-11-08T08:18:06.930Z,3.88
2022-11-08T08:20:35.084Z,3.45
2022-11-08T08:23:01.992Z,3.05
2022-11-08T08:25:31.119Z,3.28
2022-11-08T08:28:00.972Z,3.78
2022-11-08T08:30:28.766Z,3.25
2022-11-08T08:33:27.310Z,5.07
2022-11-08T08:35:53.731Z,3.15
2022-11-08T08:38:20.716Z,3.03
2022-11-08T08:40:47.620Z,2.63
2022-11-08T08:43:14.523Z,2.70
2022-11-08T08:45:41.967Z,2.67
2022-11-08T08:48:08.837Z,2.70
2022-11-08T08:50:35.668Z,3.85
2022-11-08T08:53:04.618Z,6.55
2022-11-08T08:55:31.913Z,26.80
2022-11-08T08:57:58.805Z,22.70
2022-11-08T09:03:13.085Z,14.40
2022-11-08T09:05:46.363Z,11.40
2022-11-08T09:08:14.586Z,11.75
2022-11-08T09:10:41.778Z,9.25
2022-11-08T09:13:08.827Z,8.18
2022-11-08T09:15:35.805Z,7.70
2022-11-08T09:18:02.975Z,7.68
2022-11-08T09:20:29.857Z,7.20
2022-11-08T09:23:00.950Z,6.30
2022-11-08T09:25:27.807Z,6.97
2022-11-08T09:27:55.154Z,5.38
2022-11-08T09:30:22.051Z,5.80
2022-11-08T09:33:04.161Z,6.18
2022-11-08T09:35:31.128Z,5.53
2022-11-08T09:37:58.688Z,13.50
2022-11-08T09:40:41.028Z,5.20
2022-11-08T09:43:32.653Z,5.57
2022-11-08T09:45:59.536Z,5.07
2022-11-08T09:48:35.657Z,4.72
2022-11-08T09:51:12.904Z,6.47
2022-11-08T09:53:42.698Z,4.15
2022-11-08T09:56:26.020Z,4.95
2022-11-08T09:59:11.754Z,6.28
2022-11-08T10:01:40.166Z,6.03
2022-11-08T10:04:16.566Z,5.43
2022-11-08T10:07:02.463Z,8.63
2022-11-08T10:10:07.345Z,5.75
2022-11-08T10:12:46.115Z,5.97
2022-11-08T10:15:19.161Z,15.03
2022-11-08T10:18:40.489Z,18.02
2022-11-08T10:21:22.797Z,16.00
2022-11-08T10:24:03.676Z,13.25
2022-11-08T10:26:36.938Z,15.18
2022-11-08T10:29:21.016Z,12.85
2022-11-08T10:31:52.440Z,10.07
2022-11-08T10:34:24.980Z,12.05
2022-11-08T10:36:54.848Z,11.80
2022-11-08T10:39:27.963Z,10.02
2022-11-08T10:42:06.447Z,11.20
2022-11-08T10:44:34.388Z,10.85
2022-11-08T10:47:04.727Z,9.68
2022-11-08T10:49:40.563Z,11.57
2022-11-08T10:52:20.358Z,8.88
2022-11-08T10:54:52.528Z,8.63
2022-11-08T10:57:28.373Z,9.55
2022-11-08T10:59:56.448Z,11.43
2022-11-08T11:02:29.575Z,11.60
2022-11-08T11:05:16.402Z,9.73
2022-11-08T11:07:59.208Z,9.70
2022-11-08T11:10:30.771Z,8.18
2022-11-08T11:13:24.405Z,8.38
2022-11-08T11:15:58.478Z,10.30
2022-11-08T11:18:50.601Z,9.35
2022-11-08T11:21:19.148Z,9.90
2022-11-08T11:23:51.852Z,7.85
2022-11-08T11:29:09.632Z,20.75
2022-11-08T11:31:38.997Z,17.23
2022-11-08T11:34:18.162Z,17.33
2022-11-08T11:37:10.834Z,14.80
2022-11-08T11:40:02.566Z,16.05
2022-11-08T11:42:46.245Z,12.65
2022-11-08T11:45:35.391Z,10.85
2022-11-08T11:48:06.432Z,10.10
2022-11-08T11:50:39.387Z,9.38
2022-11-08T11:53:33.260Z,10.65
2022-11-08T11:56:17.933Z,9.65
2022-11-08T11:58:53.688Z,8.80
2022-11-08T12:01:29.101Z,9.82
2022-11-08T12:04:20.796Z,11.15
2022-11-08T12:07:08.818Z,20.30
2022-11-08T12:10:08.837Z,16.45
2022-11-08T12:12:41.756Z,15.65
2022-11-08T12:15:34.762Z,14.07
2022-11-08T12:18:30.527Z,11.48
2022-11-08T12:21:15.737Z,10.77
2022-11-08T12:24:13.926Z,12.23
2022-11-08T12:26:43.668Z,9.93
2022-11-08T12:32:04.525Z,9.02
2022-11-08T12:34:50.209Z,10.98
2022-11-08T12:37:20.061Z,8.23
2022-11-08T12:39:51.016Z,9.00
2022-11-08T12:42:32.431Z,8.32
2022-11-08T12:44:59.666Z,9.68
2022-11-08T12:47:37.384Z,7.55
2022-11-08T12:50:27.935Z,8.35
2022-11-08T12:53:32.085Z,8.20
2022-11-08T12:55:59.386Z,8.27
2022-11-08T12:58:36.679Z,6.97
2022-11-08T13:04:03.210Z,7.45
2022-11-08T13:06:54.581Z,6.95
2022-11-08T13:09:43.802Z,6.95
2022-11-08T13:12:28.243Z,7.40
2022-11-08T13:14:55.581Z,9.20
2022-11-08T13:17:26.838Z,6.55
2022-11-08T13:20:05.840Z,7.07
2022-11-08T13:22:32.809Z,23.65
2022-11-08T13:25:11.852Z,21.20
2022-11-08T13:27:45.655Z,18.33
2022-11-08T13:30:14.068Z,13.60
2022-11-08T13:32:48.635Z,11.93
2022-11-08T13:35:33.551Z,11.00
2022-11-08T13:38:28.248Z,11.45
2022-11-08T13:41:06.926Z,9.63
2022-11-08T13:43:34.949Z,9.70
2022-11-08T13:46:20.412Z,9.65
2022-11-08T13:49:03.603Z,12.32
2022-11-08T13:51:38.361Z,24.35
2022-11-08T13:54:23.612Z,19.65
2022-11-08T13:56:50.626Z,15.57
2022-11-08T13:59:32.918Z,13.57
2022-11-08T14:02:04.446Z,12.93
2022-11-08T14:04:33.674Z,12.68
2022-11-08T14:07:26.164Z,10.45
2022-11-08T14:10:09.283Z,10.98
2022-11-08T14:12:57.825Z,9.70
2022-11-08T14:15:46.686Z,10.02
2022-11-08T14:18:19.092Z,9.60
2022-11-08T14:20:48.159Z,9.77
2022-11-08T14:23:21.379Z,9.30
2022-11-08T14:26:00.432Z,9.02
2022-11-08T14:28:32.967Z,8.60
2022-11-08T14:31:01.533Z,9.32
2022-11-08T14:33:30.138Z,8.00
2022-11-08T14:35:58.896Z,8.68
2022-11-08T14:38:27.238Z,8.10
2022-11-08T14:41:02.182Z,8.68
2022-11-08T14:43:29.637Z,8.30
2022-11-08T14:45:59.705Z,8.30
2022-11-08T14:48:30.808Z,32.97
2022-11-08T14:51:02.501Z,29.23
2022-11-08T14:53:46.309Z,22.77
2022-11-08T14:56:26.346Z,18.08
2022-11-08T14:58:54.813Z,15.50
2022-11-08T15:01:26.074Z,14.63
2022-11-08T15:04:14.559Z,13.73
2022-11-08T15:06:43.806Z,12.55
2022-11-08T15:09:26.327Z,12.20
2022-11-08T15:11:55.742Z,11.43
2022-11-08T15:14:25.272Z,11.75
2022-11-08T15:17:01.671Z,11.13
2022-11-08T15:19:42.603Z,10.75
2022-11-08T15:25:13.977Z,9.30
2022-11-08T15:27:52.548Z,9.25
2022-11-08T15:30:33.048Z,9.02
2022-11-08T15:32:59.932Z,9.25
2022-11-08T15:35:38.884Z,9.15
2022-11-08T15:38:29.639Z,9.20
2022-11-08T15:41:03.917Z,8.48
2022-11-08T15:43:38.254Z,7.57
2022-11-08T15:46:05.917Z,8.68
2022-11-08T15:48:33.441Z,8.38
2022-11-08T15:51:00.266Z,8.40
2022-11-08T15:56:01.758Z,8.15
2022-11-08T15:58:36.632Z,7.50
2022-11-08T16:01:04.828Z,15.63
2022-11-08T16:03:33.706Z,20.20
2022-11-08T16:06:00.694Z,15.63
2022-11-08T16:08:28.044Z,11.68
2022-11-08T16:10:58.849Z,12.02
2022-11-08T16:13:31.315Z,10.27
2022-11-08T16:15:58.901Z,9.48
2022-11-08T16:18:26.345Z,9.15
2022-11-08T16:20:53.291Z,8.75
2022-11-08T16:23:20.105Z,9.18
2022-11-08T16:28:38.209Z,8.10
2022-11-08T16:31:07.417Z,9.05
2022-11-08T16:33:35.337Z,7.95
2022-11-08T16:36:14.674Z,7.93
2022-11-08T16:38:41.527Z,7.07
2022-11-08T16:41:09.152Z,7.57
2022-11-08T16:43:36.015Z,6.53
2022-11-08T16:46:07.379Z,9.80
2022-11-08T16:48:38.084Z,6.55
2022-11-08T16:51:07.540Z,6.75
2022-11-08T16:53:35.768Z,6.97
2022-11-08T16:56:02.687Z,7.03
2022-11-08T16:58:29.519Z,6.97
2022-11-08T17:00:57.149Z,6.28
2022-11-08T17:03:26.142Z,7.30
2022-11-08T17:05:54.196Z,6.47
2022-11-08T17:08:21.736Z,6.32
2022-11-08T17:10:48.783Z,5.95
2022-11-08T17:13:17.598Z,6.18
2022-11-08T17:15:45.612Z,5.80
2022-11-08T17:18:14.462Z,5.78
2022-11-08T17:20:41.882Z,5.55
2022-11-08T17:23:09.378Z,5.18
2022-11-08T17:25:37.798Z,5.60
2022-11-08T17:28:04.999Z,5.85
2022-11-08T17:30:31.962Z,5.68
2022-11-08T17:32:58.947Z,5.47
2022-11-08T17:35:25.959Z,5.43
2022-11-08T17:37:53.794Z,5.03
2022-11-08T17:40:20.751Z,5.97
2022-11-08T17:42:47.648Z,6.03
2022-11-08T17:45:14.527Z,4.97
2022-11-08T17:47:41.327Z,5.22
2022-11-08T17:50:10.080Z,4.90
2022-11-08T17:52:37.194Z,4.47
2022-11-08T17:55:04.728Z,7.10
2022-11-08T17:57:31.690Z,4.93
2022-11-08T17:59:58.618Z,4.95
2022-11-08T18:02:27.442Z,8.38
2022-11-08T18:04:54.788Z,5.38
2022-11-08T18:07:21.904Z,4.90
2022-11-08T18:09:48.797Z,4.50
2022-11-08T18:12:15.687Z,4.43
2022-11-08T18:14:42.539Z,4.78
2022-11-08T18:17:09.431Z,4.43
2022-11-08T18:19:37.320Z,5.18
2022-11-08T18:22:04.802Z,4.13
2022-11-08T18:24:31.742Z,4.10
2022-11-08T18:26:58.840Z,5.63
2022-11-08T18:29:25.691Z,4.40
2022-11-08T18:31:52.640Z,4.38
2022-11-08T18:34:19.841Z,4.05
2022-11-08T18:36:49.089Z,4.18
2022-11-08T18:39:19.583Z,3.90
2022-11-08T18:41:46.780Z,4.28
2022-11-08T18:44:13.668Z,4.38
2022-11-08T18:46:43.447Z,7.28
2022-11-08T18:49:11.079Z,7.93
2022-11-08T18:51:38.134Z,10.50
2022-11-08T18:54:04.962Z,14.80
2022-11-08T18:56:31.933Z,22.35
2022-11-08T18:58:58.795Z,17.95
2022-11-08T19:01:25.745Z,19.45
2022-11-08T19:03:52.751Z,18.02
2022-11-08T19:06:19.707Z,17.83
2022-11-08T19:08:46.729Z,16.63
2022-11-08T19:11:14.581Z,21.52
2022-11-08T19:13:41.604Z,20.20
2022-11-08T19:16:13.721Z,20.05
2022-11-08T19:18:41.549Z,18.20
2022-11-08T19:21:13.328Z,19.70
2022-11-08T19:23:40.407Z,16.92
2022-11-08T19:26:11.007Z,20.85
2022-11-08T19:31:08.814Z,15.38
2022-11-08T19:33:36.393Z,20.88
2022-11-08T19:36:07.232Z,18.48
2022-11-08T19:38:38.515Z,20.38
2022-11-08T19:41:10.848Z,21.67
2022-11-08T19:43:38.793Z,16.45
2022-11-08T19:46:07.775Z,14.23
2022-11-08T19:48:37.305Z,16.35
2022-11-08T19:51:06.364Z,13.68
2022-11-08T19:53:33.633Z,15.50
2022-11-08T19:56:08.287Z,11.60
2022-11-08T19:58:37.306Z,12.15
2022-11-08T20:01:36.295Z,12.30
2022-11-08T20:04:05.197Z,15.57
2022-11-08T20:06:32.606Z,14.73
2022-11-08T20:08:59.756Z,16.42
2022-11-08T20:11:35.836Z,10.32
2022-11-08T20:14:04.370Z,11.63
2022-11-08T20:16:35.935Z,12.23
2022-11-08T20:19:05.888Z,14.15
2022-11-08T20:21:33.004Z,9.07
2022-11-08T20:23:59.939Z,11.70
2022-11-08T20:26:27.400Z,11.77
2022-11-08T20:28:56.698Z,11.48
2022-11-08T20:31:25.053Z,9.45
2022-11-08T20:33:53.452Z,9.63
2022-11-08T20:36:22.788Z,7.65
2022-11-08T20:38:50.161Z,8.93
2022-11-08T20:41:17.869Z,11.10
2022-11-08T20:43:46.499Z,9.98
2022-11-08T20:46:18.074Z,9.02
2022-11-08T20:48:50.733Z,15.25
2022-11-08T20:51:19.482Z,15.65
2022-11-08T20:53:46.733Z,15.00
2022-11-08T20:56:19.467Z,13.48
2022-11-08T20:58:47.554Z,12.35
2022-11-08T21:01:17.768Z,13.63
2022-11-08T21:03:45.764Z,11.90
2022-11-08T21:06:15.135Z,12.32
2022-11-08T21:08:59.992Z,11.75
2022-11-08T21:11:30.345Z,11.45
2022-11-08T21:13:57.736Z,11.35
2022-11-08T21:16:30.419Z,11.05
2022-11-08T21:18:59.197Z,9.40
2022-11-08T21:21:26.463Z,8.25
2022-11-08T21:23:54.648Z,10.90
2022-11-08T21:26:22.041Z,8.75
2022-11-08T21:28:48.926Z,8.00
2022-11-08T21:31:15.777Z,8.40
2022-11-08T21:33:42.781Z,23.13
2022-11-08T21:36:10.437Z,24.88
2022-11-08T21:38:38.835Z,22.10
2022-11-08T21:41:07.416Z,19.52
2022-11-08T21:43:45.643Z,18.42
2022-11-08T21:46:18.196Z,16.48
2022-11-08T21:48:45.362Z,14.75
2022-11-08T21:51:12.439Z,14.65
2022-11-08T21:53:49.427Z,13.73
2022-11-08T21:56:21.251Z,13.23
2022-11-08T21:58:48.103Z,13.40
2022-11-08T22:01:14.983Z,11.63
2022-11-08T22:03:41.868Z,11.13
2022-11-08T22:06:08.789Z,11.10
2022-11-08T22:08:35.679Z,10.80
2022-11-08T22:11:02.500Z,10.30
2022-11-08T22:13:29.358Z,9.70
2022-11-08T22:15:56.265Z,8.88
2022-11-08T22:18:36.765Z,9.40
2022-11-08T22:21:28.451Z,9.30
2022-11-08T22:23:55.351Z,7.80
2022-11-08T22:26:22.242Z,6.85
2022-11-08T22:28:49.078Z,8.73
2022-11-08T22:31:15.959Z,7.10
2022-11-08T22:33:42.828Z,7.85
2022-11-08T22:36:09.858Z,7.00
2022-11-08T22:38:36.721Z,7.93
2022-11-08T22:41:03.581Z,7.57
2022-11-08T22:43:30.409Z,8.18
2022-11-08T22:45:57.308Z,16.48
2022-11-08T22:48:24.162Z,15.85
2022-11-08T22:50:51.020Z,14.05
2022-11-08T22:53:18.366Z,13.63
2022-11-08T22:55:45.564Z,11.10
2022-11-08T22:58:12.841Z,10.85
2022-11-08T23:00:39.759Z,10.63
2022-11-08T23:03:06.664Z,8.80
2022-11-08T23:05:33.488Z,9.00
2022-11-08T23:08:00.383Z,8.23
2022-11-08T23:10:27.379Z,7.90
2022-11-08T23:13:12.636Z,7.47
2022-11-08T23:15:59.745Z,8.18
2022-11-08T23:18:27.775Z,7.00
2022-11-08T23:21:13.709Z,7.00
2022-11-08T23:23:59.169Z,6.32
2022-11-08T23:26:44.778Z,6.30
2022-11-08T23:29:30.273Z,8.07
2022-11-08T23:31:57.325Z,6.00
2022-11-08T23:34:24.203Z,6.65
2022-11-08T23:36:51.056Z,7.05
2022-11-08T23:39:17.960Z,6.18
2022-11-08T23:42:03.427Z,7.35
2022-11-08T23:44:30.260Z,26.25
2022-11-08T23:47:00.967Z,25.17
2022-11-08T23:49:28.215Z,21.52
2022-11-08T23:51:55.120Z,17.02
2022-11-08T23:54:22.185Z,14.50
2022-11-08T23:56:49.306Z,12.77
2022-11-08T23:59:16.232Z,12.27
